KSLG/SLG METAR and TAF weather

Enter ICAO airport designator
Station Type Date Time Source
KSLG METAR 2022/01/19 18:56 UTC NOAA

KSLG 191856Z AUTO 02013G21KT 10SM OVC019 03/M01 A3008 RMK AO2 SLP187 T00281011


Station Type Date Time Source
KSLG Decoded METAR 2022/01/19 18:56 UTC NOAA

Siloam Springs, Smith Field Airport, AR, United States (KSLG) 36-12N 094-29W
Jan 19, 2022 - 01:56 PM EST / 2022.01.19 1856 UTC
Wind: from the NNE (020 degrees) at 15 MPH (13 KT) gusting to 24 MPH (21 KT):0
Visibility: 10 mile(s):0
Sky conditions: overcast
Temperature: 37.0 F (2.8 C)
Dew Point: 30.0 F (-1.1 C)
Relative Humidity: 75%
Pressure (altimeter): 30.08 in. Hg (1018 hPa)
ob: KSLG 191856Z AUTO 02013G21KT 10SM OVC019 03/M01 A3008 RMK AO2 SLP187 T00281011
cycle: 19

Station Type Date Time Source
KSLG TAF UTC NOAA

Error!

Example: see airport list